Time;durP1;ratioP1;P1;durP2;ratioP2;P2;SDS_P1;SDS_P2;PMS_P1;PMS_P2;Temp;Humidity;BMP_temperature;BMP_pressure;BME280_temperature;BME280_humidity;BME280_pressure;Samples;Min_cycle;Max_cycle;Signal;HPM_P1;HPM_P2
2021/12/27 00:02:12;;;;;;;81.55;26.95;;;;;;;-10.96;68.95;98270.06;5103975;28;20039;-65
2021/12/27 00:04:37;;;;;;;82.75;27.92;;;;;;;-11.00;69.29;98262.63;5103102;28;20055;-65
2021/12/27 00:07:03;;;;;;;68.72;24.98;;;;;;;-11.02;69.55;98270.75;5103765;28;20035;-66
2021/12/27 00:09:28;;;;;;;72.15;26.00;;;;;;;-11.08;69.44;98263.44;5103471;28;20028;-66
2021/12/27 00:11:53;;;;;;;75.50;25.52;;;;;;;-11.11;69.75;98261.94;5102710;28;20414;-67
2021/12/27 00:14:19;;;;;;;82.18;29.02;;;;;;;-11.01;69.68;98260.97;5101873;28;20464;-67
2021/12/27 00:16:44;;;;;;;85.57;29.48;;;;;;;-10.92;69.89;98263.44;5105177;27;20533;-67
2021/12/27 00:19:10;;;;;;;86.60;29.02;;;;;;;-10.81;70.11;98257.03;5104153;28;20172;-68
2021/12/27 00:21:36;;;;;;;86.18;28.67;;;;;;;-10.70;70.43;98257.69;5103879;28;20035;-68
2021/12/27 00:24:01;;;;;;;98.28;31.58;;;;;;;-10.62;70.06;98258.53;5084000;28;20536;-67
2021/12/27 00:26:26;;;;;;;95.47;32.03;;;;;;;-10.55;70.00;98249.91;5103114;28;20039;-67
2021/12/27 00:28:52;;;;;;;95.82;29.38;;;;;;;-10.54;70.11;98248.91;5102662;28;20023;-67
2021/12/27 00:31:17;;;;;;;93.32;32.65;;;;;;;-10.53;70.08;98250.56;5103096;27;20027;-67
2021/12/27 00:33:44;;;;;;;86.68;29.23;;;;;;;-10.49;69.83;98254.53;5102550;27;20027;-67
2021/12/27 00:36:09;;;;;;;82.07;28.55;;;;;;;-10.50;69.65;98253.72;5102993;28;20028;-67
2021/12/27 00:38:35;;;;;;;84.15;29.63;;;;;;;-10.45;70.06;98253.22;5102687;28;20093;-67
2021/12/27 00:41:00;;;;;;;90.07;27.83;;;;;;;-10.39;70.05;98259.69;5102585;28;20040;-68
2021/12/27 00:43:26;;;;;;;92.35;31.65;;;;;;;-10.34;70.04;98262.63;5101557;28;20534;-67
2021/12/27 00:45:51;;;;;;;82.53;27.58;;;;;;;-10.32;69.75;98250.88;5102792;27;20027;-67
2021/12/27 00:48:17;;;;;;;74.32;24.45;;;;;;;-10.32;69.79;98265.94;5102811;28;20030;-67
2021/12/27 00:50:44;;;;;;;77.15;26.75;;;;;;;-10.30;69.71;98263.13;5103580;27;20387;-66
2021/12/27 00:53:09;;;;;;;77.70;24.98;;;;;;;-10.27;69.93;98260.16;5102519;28;20034;-67
2021/12/27 00:55:35;;;;;;;71.20;22.17;;;;;;;-10.25;70.11;98260.81;5102169;28;20020;-67
2021/12/27 00:58:00;;;;;;;76.32;26.17;;;;;;;-10.22;70.06;98268.44;5102929;27;20040;-67
2021/12/27 01:00:26;;;;;;;76.18;26.38;;;;;;;-10.21;70.21;98272.75;5101883;28;20575;-68
2021/12/27 01:02:53;;;;;;;65.38;22.08;;;;;;;-10.14;70.14;98278.19;5103816;27;20051;-66
2021/12/27 01:05:19;;;;;;;63.10;20.98;;;;;;;-10.14;70.14;98281.66;5101524;28;20498;-66
2021/12/27 01:07:44;;;;;;;64.30;23.30;;;;;;;-10.13;70.14;98277.19;5102774;28;20027;-66
2021/12/27 01:13:01;;;;;;;64.40;22.92;;;;;;;-10.03;70.10;98283.97;5104172;27;20086;-66
2021/12/27 01:17:55;;;;;;;72.60;25.30;;;;;;;-9.96;70.07;98278.00;5101848;28;20458;-66
2021/12/27 01:20:23;;;;;;;68.70;23.65;;;;;;;-9.96;70.10;98275.34;5102625;28;20020;-66
2021/12/27 01:22:50;;;;;;;59.13;21.00;;;;;;;-10.04;69.73;98262.94;5101757;28;20038;-66
2021/12/27 01:25:16;;;;;;;64.47;22.45;;;;;;;-10.15;69.58;98263.28;5102024;28;20031;-66
2021/12/27 01:27:43;;;;;;;63.15;22.80;;;;;;;-10.32;69.42;98257.97;5083865;28;20707;-66
2021/12/27 01:30:12;;;;;;;61.92;22.77;;;;;;;-10.46;69.52;98251.56;5083177;27;20712;-66
2021/12/27 01:32:45;;;;;;;61.92;21.77;;;;;;;-10.50;69.76;98250.22;5083830;28;20019;-66
2021/12/27 01:35:10;;;;;;;58.72;21.58;;;;;;;-10.42;70.02;98255.53;5101249;28;20055;-66
2021/12/27 01:37:36;;;;;;;61.85;20.48;;;;;;;-10.39;69.98;98247.25;5102797;28;20067;-66
2021/12/27 01:40:03;;;;;;;62.45;20.60;;;;;;;-10.38;70.05;98256.81;5102312;28;20396;-65
2021/12/27 01:42:28;;;;;;;54.97;20.95;;;;;;;-10.41;70.05;98241.28;5101831;28;20023;-66
2021/12/27 01:44:54;;;;;;;58.83;20.30;;;;;;;-10.38;69.92;98248.03;5101369;28;20096;-67
2021/12/27 01:47:20;;;;;;;53.80;20.38;;;;;;;-10.39;70.08;98249.09;5102567;28;20020;-66
2021/12/27 01:49:46;;;;;;;51.30;19.92;;;;;;;-10.40;70.03;98253.53;5102116;27;20023;-67
2021/12/27 01:52:11;;;;;;;51.72;18.45;;;;;;;-10.37;70.21;98253.19;5101857;28;20160;-67
2021/12/27 01:54:37;;;;;;;58.08;21.13;;;;;;;-10.36;70.10;98244.22;5101628;28;20034;-66
2021/12/27 01:57:03;;;;;;;60.95;21.65;;;;;;;-10.39;70.07;98246.44;5101021;28;20035;-66
2021/12/27 01:59:28;;;;;;;64.93;21.75;;;;;;;-10.53;69.81;98238.16;5101789;28;20031;-67
2021/12/27 02:01:54;;;;;;;63.72;22.23;;;;;;;-10.60;70.11;98242.44;5083160;28;20033;-66
2021/12/27 02:04:19;;;;;;;63.55;23.15;;;;;;;-10.57;70.48;98235.97;5083187;28;20055;-66
2021/12/27 02:06:45;;;;;;;64.53;21.13;;;;;;;-10.54;70.87;98233.00;5083527;28;20866;-65
2021/12/27 02:09:11;;;;;;;53.63;19.85;;;;;;;-10.49;70.91;98242.13;5101975;28;20050;-66
2021/12/27 02:11:36;;;;;;;63.60;24.08;;;;;;;-10.41;71.39;98238.63;5101040;28;20028;-65
2021/12/27 02:14:04;;;;;;;64.57;23.30;;;;;;;-10.40;71.51;98239.47;5100603;28;20475;-65
2021/12/27 02:16:31;;;;;;;62.33;22.38;;;;;;;-10.37;71.16;98237.28;5101532;28;20035;-66
2021/12/27 02:18:57;;;;;;;55.72;20.80;;;;;;;-10.36;71.47;98244.22;5101397;28;20076;-65
2021/12/27 02:21:24;;;;;;;69.18;25.55;;;;;;;-10.35;71.34;98245.03;5098307;28;20315;-65
2021/12/27 02:23:53;;;;;;;55.08;20.75;;;;;;;-10.29;71.43;98239.06;5099964;28;20055;-65
2021/12/27 02:26:19;;;;;;;49.15;20.83;;;;;;;-10.34;71.27;98230.78;5101460;28;20038;-65
2021/12/27 02:28:45;;;;;;;62.97;21.77;;;;;;;-10.31;71.41;98238.41;5102115;28;20069;-65
2021/12/27 02:31:11;;;;;;;55.13;20.65;;;;;;;-10.28;71.30;98222.16;5084579;28;20031;-66
2021/12/27 02:33:39;;;;;;;60.22;21.98;;;;;;;-10.28;71.66;98222.16;5101289;28;20036;-65
2021/12/27 02:36:06;;;;;;;64.07;21.75;;;;;;;-10.33;71.87;98220.03;5102552;28;20119;-66
2021/12/27 02:38:34;;;;;;;58.17;20.02;;;;;;;-10.33;71.83;98220.03;5101545;28;20040;-66
2021/12/27 02:41:00;;;;;;;66.50;24.58;;;;;;;-10.32;71.81;98216.38;5102109;28;20044;-67
2021/12/27 02:43:28;;;;;;;64.60;23.98;;;;;;;-10.23;71.89;98217.19;5101198;28;20035;-67
2021/12/27 02:45:59;;;;;;;55.78;20.42;;;;;;;-10.21;71.99;98215.19;5084776;28;20046;-66
2021/12/27 02:48:33;;;;;;;61.92;21.65;;;;;;;-10.17;71.83;98221.81;5101952;28;20089;-67
2021/12/27 02:50:59;;;;;;;65.30;22.65;;;;;;;-10.11;71.75;98220.31;5101580;28;20036;-67
2021/12/27 02:53:25;;;;;;;62.30;22.70;;;;;;;-10.04;71.86;98217.84;5100470;28;20059;-66
2021/12/27 02:55:52;;;;;;;94.63;27.25;;;;;;;-10.05;71.86;98217.00;5084306;28;20034;-66
2021/12/27 02:58:18;;;;;;;85.32;27.60;;;;;;;-10.02;71.96;98221.16;5083709;28;20072;-66
2021/12/27 03:00:51;;;;;;;70.78;25.98;;;;;;;-9.96;71.66;98217.78;5099617;28;20027;-66
2021/12/27 03:03:17;;;;;;;65.63;24.20;;;;;;;-9.90;72.08;98216.28;5101978;28;20504;-66
2021/12/27 03:05:44;;;;;;;60.53;22.15;;;;;;;-9.91;71.91;98204.84;5102963;28;20027;-67
2021/12/27 03:08:14;;;;;;;68.38;24.17;;;;;;;-9.88;71.81;98207.16;5084215;28;20036;-66
2021/12/27 03:10:41;;;;;;;65.85;23.70;;;;;;;-9.85;72.13;98215.78;5102833;28;20147;-66
2021/12/27 03:13:07;;;;;;;64.90;24.67;;;;;;;-9.82;71.84;98212.78;5084087;28;20024;-67
2021/12/27 03:15:33;;;;;;;58.05;22.08;;;;;;;-9.85;71.58;98205.16;5101479;28;20051;-66
2021/12/27 03:17:58;;;;;;;59.08;23.42;;;;;;;-9.90;72.24;98203.84;5102470;28;20396;-67
2021/12/27 03:20:27;;;;;;;53.72;21.38;;;;;;;-9.90;71.74;98195.06;5082493;28;20104;-67
2021/12/27 03:22:53;;;;;;;64.03;24.20;;;;;;;-9.89;72.16;98194.88;5102493;28;20039;-67
2021/12/27 03:25:23;;;;;;;62.58;24.02;;;;;;;-9.88;72.03;98195.72;5100237;28;20035;-66
2021/12/27 03:27:49;;;;;;;56.97;22.10;;;;;;;-9.85;72.18;98183.94;5099756;28;20034;-67
2021/12/27 03:30:19;;;;;;;57.42;22.67;;;;;;;-9.80;71.90;98189.56;5103035;28;20039;-67
2021/12/27 03:32:45;;;;;;;75.28;29.80;;;;;;;-9.78;72.12;98185.72;5102088;28;20111;-66
2021/12/27 03:35:14;;;;;;;64.45;25.40;;;;;;;-9.74;72.19;98173.75;5083148;28;20564;-67
2021/12/27 03:37:48;;;;;;;62.90;22.85;;;;;;;-9.71;72.01;98175.25;5105845;28;20210;-66
2021/12/27 03:40:17;;;;;;;67.30;24.48;;;;;;;-9.66;72.17;98178.22;5087473;28;20035;-66
2021/12/27 03:42:43;;;;;;;65.43;26.63;;;;;;;-9.60;72.53;98189.97;5105958;28;20035;-66
2021/12/27 03:45:09;;;;;;;66.22;26.10;;;;;;;-9.59;71.87;98184.50;5085831;28;20032;-66
2021/12/27 03:47:36;;;;;;;65.28;28.13;;;;;;;-9.53;72.42;98192.75;5105255;28;20039;-66
2021/12/27 03:50:04;;;;;;;68.45;26.95;;;;;;;-9.48;72.41;98201.00;5105859;28;20047;-66
2021/12/27 03:52:29;;;;;;;65.95;25.45;;;;;;;-9.47;72.13;98198.19;5105564;28;20108;-66
2021/12/27 03:54:54;;;;;;;74.30;30.95;;;;;;;-9.43;72.29;98202.16;5104685;28;20158;-66
2021/12/27 03:57:20;;;;;;;84.53;31.98;;;;;;;-9.38;71.95;98208.78;5105636;27;20028;-66
2021/12/27 04:02:13;;;;;;;72.90;27.90;;;;;;;-9.40;71.97;98210.78;5105427;28;20075;-66
2021/12/27 04:04:39;;;;;;;65.55;25.73;;;;;;;-9.45;72.17;98206.81;5105472;28;20139;-65
2021/12/27 04:07:07;;;;;;;66.53;25.50;;;;;;;-9.48;71.89;98207.16;5086807;28;20089;-65
2021/12/27 04:09:33;;;;;;;69.28;27.08;;;;;;;-9.46;71.96;98209.63;5105845;27;20023;-66
2021/12/27 04:11:58;;;;;;;60.20;24.52;;;;;;;-9.44;71.93;98210.28;5086212;28;20069;-66
2021/12/27 04:14:25;;;;;;;64.30;24.23;;;;;;;-9.48;72.16;98203.66;5103814;27;20023;-66
2021/12/27 04:16:51;;;;;;;74.00;26.13;;;;;;;-9.52;71.86;98210.31;5105627;28;20027;-66
2021/12/27 04:19:16;;;;;;;67.28;25.65;;;;;;;-9.53;71.65;98214.81;5104852;28;20027;-66
2021/12/27 04:21:42;;;;;;;60.38;23.77;;;;;;;-9.53;71.99;98214.81;5105314;28;20035;-66
2021/12/27 04:24:07;;;;;;;77.45;29.40;;;;;;;-9.57;71.99;98214.31;5103397;28;20107;-66
2021/12/27 04:26:33;;;;;;;65.15;25.38;;;;;;;-9.60;71.92;98214.69;5105001;28;20032;-66
2021/12/27 04:28:59;;;;;;;69.72;27.38;;;;;;;-9.61;72.08;98220.16;5105133;27;20027;-66
2021/12/27 04:31:24;;;;;;;64.13;25.38;;;;;;;-9.65;72.02;98214.38;5105205;28;20507;-65
2021/12/27 04:33:49;;;;;;;71.32;27.23;;;;;;;-9.69;71.87;98223.69;5104101;28;20031;-66
2021/12/27 04:36:15;;;;;;;66.20;22.98;;;;;;;-9.67;71.73;98219.03;5085895;28;20027;-65
2021/12/27 04:38:44;;;;;;;72.25;27.10;;;;;;;-9.63;71.99;98228.31;5104858;28;20038;-66
2021/12/27 04:41:13;;;;;;;74.63;27.27;;;;;;;-9.60;72.43;98233.28;5105157;28;20209;-66
2021/12/27 04:43:39;;;;;;;65.43;25.70;;;;;;;-9.57;72.02;98224.13;5104457;28;20522;-65
2021/12/27 04:46:05;;;;;;;68.93;24.67;;;;;;;-9.54;71.95;98228.25;5105605;27;20035;-66
2021/12/27 04:48:30;;;;;;;66.80;23.33;;;;;;;-9.56;72.11;98225.78;5104320;28;20039;-66
2021/12/27 04:50:56;;;;;;;62.53;21.77;;;;;;;-9.59;72.07;98213.69;5105077;28;20443;-66
2021/12/27 04:53:22;;;;;;;65.00;24.15;;;;;;;-9.60;71.88;98213.84;5103875;28;20111;-66
2021/12/27 04:55:48;;;;;;;64.30;21.67;;;;;;;-9.62;72.25;98218.50;5105922;28;20053;-66
2021/12/27 04:58:18;;;;;;;57.72;22.33;;;;;;;-9.68;71.62;98208.56;5086474;28;21136;-66
2021/12/27 05:00:44;;;;;;;63.78;24.08;;;;;;;-9.75;71.92;98214.56;5104713;28;20031;-66
2021/12/27 05:03:09;;;;;;;62.47;22.40;;;;;;;-9.78;71.90;98208.78;5103569;28;20137;-66
2021/12/27 05:05:37;;;;;;;66.85;25.27;;;;;;;-9.81;71.75;98214.44;5105983;27;20147;-65
2021/12/27 05:08:03;;;;;;;60.97;22.88;;;;;;;-9.79;71.88;98215.09;5103534;28;20908;-66
2021/12/27 05:10:30;;;;;;;72.30;25.63;;;;;;;-9.87;71.84;98198.19;5104148;28;20156;-66
2021/12/27 05:12:56;;;;;;;81.72;28.20;;;;;;;-9.97;71.95;98196.75;5085349;28;20046;-65
2021/12/27 05:15:22;;;;;;;65.47;25.45;;;;;;;-10.11;71.55;98198.28;5102609;28;20431;-66
2021/12/27 05:17:47;;;;;;;67.82;25.38;;;;;;;-10.20;71.94;98205.44;5104825;28;20034;-66
2021/12/27 05:20:13;;;;;;;69.30;25.55;;;;;;;-10.25;72.16;98197.16;5104556;28;20039;-66
2021/12/27 05:22:40;;;;;;;71.88;27.42;;;;;;;-10.27;71.86;98201.81;5104086;28;20039;-66
2021/12/27 05:25:06;;;;;;;77.13;29.02;;;;;;;-10.33;72.07;98196.16;5104124;27;20039;-65
2021/12/27 05:27:32;;;;;;;82.55;27.10;;;;;;;-10.40;71.99;98199.69;5104168;27;20127;-66
2021/12/27 05:29:57;;;;;;;73.00;25.25;;;;;;;-10.44;71.99;98193.09;5103547;28;20035;-66
2021/12/27 05:32:23;;;;;;;66.15;24.85;;;;;;;-10.50;72.15;98186.59;5104489;28;20015;-66
2021/12/27 05:34:48;;;;;;;57.75;22.42;;;;;;;-10.56;72.52;98176.66;5103711;28;20361;-66
2021/12/27 05:37:14;;;;;;;78.10;28.27;;;;;;;-10.62;72.81;98175.53;5102925;28;20023;-66
2021/12/27 05:39:40;;;;;;;74.80;27.00;;;;;;;-10.66;72.86;98180.34;5084962;28;20035;-66
2021/12/27 05:42:06;;;;;;;66.97;24.08;;;;;;;-10.70;73.36;98176.38;5104189;28;20687;-66
2021/12/27 05:44:32;;;;;;;72.43;26.42;;;;;;;-10.72;73.24;98183.66;5103068;28;21301;-66
2021/12/27 05:46:57;;;;;;;67.50;23.48;;;;;;;-10.71;73.33;98192.41;5103521;27;20048;-67
2021/12/27 05:49:23;;;;;;;68.70;24.75;;;;;;;-10.71;73.74;98184.47;5104247;28;20033;-66
2021/12/27 05:51:49;;;;;;;74.63;26.08;;;;;;;-10.70;73.26;98180.81;5103825;28;20095;-66
2021/12/27 05:54:15;;;;;;;76.47;27.30;;;;;;;-10.71;73.44;98185.31;5084282;28;20069;-66
2021/12/27 05:56:43;;;;;;;80.07;27.83;;;;;;;-10.74;73.67;98182.16;5103365;28;20140;-65
2021/12/27 05:59:09;;;;;;;68.03;25.98;;;;;;;-10.77;73.27;98183.31;5103336;28;20058;-66
2021/12/27 06:01:35;;;;;;;78.03;28.85;;;;;;;-10.71;73.82;98193.25;5104636;27;20487;-65
2021/12/27 06:04:00;;;;;;;75.32;28.23;;;;;;;-10.59;73.94;98196.41;5101811;28;20100;-66
2021/12/27 06:06:26;;;;;;;94.22;32.90;;;;;;;-10.54;73.52;98203.84;5104016;27;20027;-65
2021/12/27 06:08:52;;;;;;;86.53;31.00;;;;;;;-10.51;73.79;98191.09;5103248;28;20468;-65
2021/12/27 06:11:18;;;;;;;110.25;35.50;;;;;;;-10.51;73.47;98183.16;5104924;28;20031;-66
2021/12/27 06:13:43;;;;;;;94.60;32.30;;;;;;;-10.48;73.50;98192.56;5102770;28;20423;-65
2021/12/27 06:16:09;;;;;;;92.35;33.10;;;;;;;-10.47;73.41;98189.75;5104563;27;20069;-66
2021/12/27 06:18:35;;;;;;;95.25;35.05;;;;;;;-10.44;73.73;98180.63;5102105;28;20069;-65
2021/12/27 06:21:00;;;;;;;102.07;37.78;;;;;;;-10.42;73.65;98177.84;5084853;28;20035;-66
2021/12/27 06:23:26;;;;;;;108.70;38.63;;;;;;;-10.44;73.18;98182.47;5102927;28;20036;-65
2021/12/27 06:25:51;;;;;;;96.32;33.53;;;;;;;-10.53;72.87;98174.53;5103612;28;20028;-65
2021/12/27 06:28:17;;;;;;;110.82;37.28;;;;;;;-10.60;73.12;98178.03;5103400;28;20047;-65
2021/12/27 06:30:43;;;;;;;80.50;29.35;;;;;;;-10.63;73.10;98184.47;5103980;28;20032;-65
2021/12/27 06:33:10;;;;;;;102.35;37.63;;;;;;;-10.70;73.04;98173.72;5102508;28;20116;-65
2021/12/27 06:35:36;;;;;;;95.50;33.55;;;;;;;-10.64;73.25;98170.41;5103259;28;20084;-65
2021/12/27 06:38:01;;;;;;;100.40;35.08;;;;;;;-10.60;73.22;98173.53;5102840;28;20040;-65
2021/12/27 06:40:27;;;;;;;119.28;40.28;;;;;;;-10.63;73.18;98174.72;5102707;28;20039;-65
2021/12/27 06:42:52;;;;;;;99.40;38.17;;;;;;;-10.58;73.52;98176.00;5102424;28;20058;-65
2021/12/27 06:45:18;;;;;;;97.90;33.20;;;;;;;-10.56;73.32;98174.88;5102552;28;20092;-65
2021/12/27 06:47:43;;;;;;;96.97;33.78;;;;;;;-10.61;73.15;98177.19;5084347;28;20103;-65
2021/12/27 06:50:10;;;;;;;97.63;35.95;;;;;;;-10.64;73.26;98188.13;5084289;28;20078;-65
2021/12/27 06:52:36;;;;;;;94.75;31.17;;;;;;;-10.60;73.20;98189.44;5102545;28;20035;-65
2021/12/27 06:55:01;;;;;;;102.10;34.53;;;;;;;-10.61;73.03;98187.78;5102131;28;20050;-66
2021/12/27 06:57:27;;;;;;;84.68;30.42;;;;;;;-10.62;72.94;98191.44;5102434;28;20097;-66
2021/12/27 06:59:52;;;;;;;110.80;34.80;;;;;;;-10.67;73.10;98183.16;5103374;28;20031;-66
2021/12/27 07:02:18;;;;;;;101.72;36.05;;;;;;;-10.70;73.16;98176.38;5103092;28;20038;-66
2021/12/27 07:04:43;;;;;;;104.20;39.80;;;;;;;-10.68;73.21;98181.50;5101930;28;20043;-66
2021/12/27 07:07:09;;;;;;;244.65;86.95;;;;;;;-10.70;73.39;98178.19;5103172;28;20035;-66
2021/12/27 07:09:34;;;;;;;274.27;109.85;;;;;;;-10.71;73.28;98180.00;5104527;28;20108;-65
2021/12/27 07:11:59;;;;;;;362.85;145.32;;;;;;;-10.67;73.26;98167.25;5106656;28;20066;-66
2021/12/27 07:14:25;;;;;;;367.75;141.73;;;;;;;-10.67;73.29;98176.03;5105462;28;20023;-66
2021/12/27 07:16:50;;;;;;;488.38;203.70;;;;;;;-10.70;73.61;98173.72;5107003;28;20024;-66
2021/12/27 07:19:16;;;;;;;407.73;151.05;;;;;;;-10.74;73.16;98169.75;5106217;28;20071;-66
2021/12/27 07:21:41;;;;;;;383.48;122.53;;;;;;;-10.77;73.33;98173.53;5108281;28;20036;-66
2021/12/27 07:24:07;;;;;;;353.83;109.70;;;;;;;-10.84;72.84;98166.44;5106419;28;20035;-66
2021/12/27 07:26:33;;;;;;;274.77;86.55;;;;;;;-10.86;73.20;98165.75;5108067;27;20031;-66
2021/12/27 07:28:59;;;;;;;318.60;94.57;;;;;;;-10.94;73.05;98158.66;5109458;27;20024;-66
2021/12/27 07:31:24;;;;;;;275.77;80.00;;;;;;;-10.96;73.25;98158.00;5107446;28;20055;-66
2021/12/27 07:33:50;;;;;;;240.60;72.10;;;;;;;-10.99;73.49;98158.31;5106039;27;20063;-66
2021/12/27 07:36:15;;;;;;;192.85;59.28;;;;;;;-11.03;73.35;98162.28;5108289;27;20106;-66
2021/12/27 07:38:42;;;;;;;183.68;62.58;;;;;;;-11.05;73.28;98165.13;5088227;28;20061;-66
2021/12/27 07:41:10;;;;;;;155.45;53.53;;;;;;;-11.07;73.52;98157.31;5107824;27;20052;-66
2021/12/27 07:43:36;;;;;;;155.38;55.78;;;;;;;-11.07;73.40;98159.97;5087313;28;20092;-65
2021/12/27 07:46:01;;;;;;;118.82;43.88;;;;;;;-10.97;73.35;98159.00;5106858;27;20096;-66
2021/12/27 07:48:27;;;;;;;111.57;41.35;;;;;;;-10.90;73.44;98167.09;5087325;28;20057;-66
2021/12/27 07:50:52;;;;;;;115.43;42.85;;;;;;;-10.86;73.29;98163.13;5104601;27;20024;-66
2021/12/27 07:53:18;;;;;;;104.40;37.40;;;;;;;-10.81;73.00;98169.59;5106411;28;20100;-66
2021/12/27 07:55:43;;;;;;;108.20;39.58;;;;;;;-10.73;73.35;98175.84;5108488;27;20036;-66
2021/12/27 07:58:09;;;;;;;109.43;39.75;;;;;;;-10.68;73.27;98179.69;5106005;28;20477;-66
2021/12/27 08:00:35;;;;;;;95.63;34.25;;;;;;;-10.66;73.21;98182.16;5104847;28;20388;-65
2021/12/27 08:03:00;;;;;;;90.18;33.53;;;;;;;-10.62;73.07;98178.19;5105422;27;21182;-65
2021/12/27 08:05:26;;;;;;;93.93;33.63;;;;;;;-10.56;73.06;98185.47;5105236;28;20472;-65
2021/12/27 08:07:51;;;;;;;93.32;34.33;;;;;;;-10.52;73.30;98175.34;5105789;28;20376;-65
2021/12/27 08:10:17;;;;;;;75.30;28.55;;;;;;;-10.47;72.91;98176.50;5087334;28;20027;-66
2021/12/27 08:12:43;;;;;;;79.78;29.75;;;;;;;-10.48;72.59;98171.38;5088761;27;20093;-66
2021/12/27 08:15:10;;;;;;;75.53;25.63;;;;;;;-10.51;72.60;98161.09;5105394;28;20114;-65
2021/12/27 08:17:36;;;;;;;74.40;27.83;;;;;;;-10.52;72.55;98162.09;5106549;27;20023;-66
2021/12/27 08:20:04;;;;;;;74.30;27.10;;;;;;;-10.62;72.31;98160.47;5105063;28;20063;-65
2021/12/27 08:22:29;;;;;;;84.28;29.65;;;;;;;-10.67;72.38;98161.94;5086392;28;20020;-66
2021/12/27 08:24:54;;;;;;;82.72;27.13;;;;;;;-10.73;72.47;98160.81;5105527;27;20081;-65
2021/12/27 08:27:22;;;;;;;78.15;27.77;;;;;;;-10.73;72.57;98165.25;5106504;27;20656;-65
2021/12/27 08:29:48;;;;;;;71.57;26.10;;;;;;;-10.77;72.59;98152.34;5109073;27;20026;-67
2021/12/27 08:32:14;;;;;;;74.93;27.38;;;;;;;-10.78;72.77;98149.88;5106847;27;20031;-66
2021/12/27 08:34:40;;;;;;;80.88;26.90;;;;;;;-10.79;72.64;98149.03;5086457;28;20035;-66
2021/12/27 08:37:05;;;;;;;84.53;28.02;;;;;;;-10.81;73.22;98143.09;5106002;27;20037;-66
2021/12/27 08:39:31;;;;;;;72.80;23.63;;;;;;;-10.76;73.15;98145.22;5106010;27;20469;-65
2021/12/27 08:41:57;;;;;;;64.78;22.95;;;;;;;-10.71;73.31;98145.56;5105738;28;20023;-65
2021/12/27 08:44:23;;;;;;;68.80;25.15;;;;;;;-10.69;73.58;98137.44;5103971;28;20031;-67
2021/12/27 08:46:48;;;;;;;71.55;24.33;;;;;;;-10.67;73.52;98144.25;5107619;27;20407;-67
2021/12/27 08:49:14;;;;;;;68.05;23.10;;;;;;;-10.58;73.61;98145.03;5104482;28;20039;-67
2021/12/27 08:51:39;;;;;;;73.10;25.55;;;;;;;-10.50;73.55;98145.03;5105245;28;20471;-65
2021/12/27 08:54:05;;;;;;;78.45;26.33;;;;;;;-10.44;73.72;98145.34;5104899;28;20042;-65
2021/12/27 08:56:31;;;;;;;79.43;26.08;;;;;;;-10.36;73.88;98154.09;5104450;28;20078;-66
2021/12/27 08:58:57;;;;;;;64.28;21.98;;;;;;;-10.27;74.09;98162.84;5108233;27;20144;-66
2021/12/27 09:01:22;;;;;;;92.93;29.40;;;;;;;-10.19;73.56;98154.84;5086630;28;20372;-66
2021/12/27 09:03:48;;;;;;;98.25;30.55;;;;;;;-10.14;74.01;98153.53;5106115;27;20046;-66
2021/12/27 09:06:14;;;;;;;90.00;29.55;;;;;;;-10.03;74.16;98147.84;5106023;28;20388;-66
2021/12/27 09:08:40;;;;;;;73.65;24.92;;;;;;;-9.92;74.00;98141.34;5105333;27;21292;-67
2021/12/27 09:11:06;;;;;;;87.82;27.27;;;;;;;-9.83;73.91;98137.66;5106131;27;20135;-66
2021/12/27 09:13:33;;;;;;;76.15;22.70;;;;;;;-9.80;73.53;98132.00;5103646;28;20071;-66
2021/12/27 09:16:01;;;;;;;89.15;27.02;;;;;;;-9.80;73.76;98129.34;5100615;27;20028;-65
2021/12/27 09:18:32;;;;;;;91.50;28.73;;;;;;;-9.81;73.82;98130.34;5083436;27;20036;-66
2021/12/27 09:20:58;;;;;;;107.10;33.03;;;;;;;-9.80;73.92;98132.00;5102152;27;20416;-66
2021/12/27 09:23:24;;;;;;;83.93;27.45;;;;;;;-9.76;73.80;98132.47;5102953;27;20022;-64
2021/12/27 09:25:49;;;;;;;81.25;26.60;;;;;;;-9.64;73.59;98133.75;5101844;28;20035;-66
2021/12/27 09:28:15;;;;;;;78.40;26.00;;;;;;;-9.58;74.00;98130.38;5101528;27;20486;-66
2021/12/27 09:30:41;;;;;;;100.45;30.83;;;;;;;-9.53;74.23;98129.00;5101690;27;20036;-65
2021/12/27 09:33:07;;;;;;;94.97;31.38;;;;;;;-9.47;73.86;98130.97;5099435;28;20039;-65
2021/12/27 09:35:33;;;;;;;73.18;25.00;;;;;;;-9.42;73.90;98128.63;5099937;28;20024;-66
2021/12/27 09:37:59;;;;;;;87.15;28.65;;;;;;;-9.30;74.13;98131.69;5099528;27;20031;-66
2021/12/27 09:40:25;;;;;;;77.03;26.73;;;;;;;-9.13;74.05;98127.09;5102133;28;20077;-66
2021/12/27 09:42:52;;;;;;;68.25;25.00;;;;;;;-9.07;74.19;98131.69;5099208;28;20015;-66
2021/12/27 09:45:19;;;;;;;77.47;26.45;;;;;;;-8.99;73.88;98130.81;5080299;28;20023;-66
2021/12/27 09:47:47;;;;;;;79.95;31.35;;;;;;;-8.83;74.33;98135.97;5101105;28;20832;-66
2021/12/27 09:50:18;;;;;;;75.32;30.23;;;;;;;-8.64;74.47;98123.19;5101986;28;20067;-67
2021/12/27 09:52:44;;;;;;;61.33;20.75;;;;;;;-8.54;74.19;98117.59;5102447;28;20027;-67
2021/12/27 09:55:11;;;;;;;71.45;24.33;;;;;;;-8.49;73.94;98122.38;5102160;28;20031;-66
2021/12/27 09:57:37;;;;;;;64.03;23.25;;;;;;;-8.37;73.87;98104.94;5102784;28;20028;-67
2021/12/27 10:00:07;;;;;;;75.85;34.30;;;;;;;-8.24;74.13;98112.25;5103063;28;20035;-67
2021/12/27 10:02:34;;;;;;;58.00;20.38;;;;;;;-8.13;73.83;98101.16;5084341;28;20039;-67
2021/12/27 10:05:00;;;;;;;56.05;20.52;;;;;;;-8.09;73.37;98098.94;5101885;28;20035;-66
2021/12/27 10:07:27;;;;;;;65.72;22.63;;;;;;;-8.16;73.13;98096.22;5102233;28;20024;-68
2021/12/27 10:09:59;;;;;;;67.90;26.23;;;;;;;-8.16;72.78;98090.88;5101859;28;20032;-69
2021/12/27 10:12:26;;;;;;;53.03;21.95;;;;;;;-8.07;73.26;98099.59;5083571;28;20092;-69
2021/12/27 10:15:02;;;;;;;61.90;24.30;;;;;;;-8.04;72.73;98093.09;5102768;28;20047;-68
2021/12/27 10:17:32;;;;;;;58.63;22.33;;;;;;;-7.97;73.44;98094.00;5102253;28;20028;-68
2021/12/27 10:20:14;;;;;;;57.58;21.52;;;;;;;-7.91;72.79;98093.22;5085407;28;20403;-68
2021/12/27 10:22:51;;;;;;;62.97;24.55;;;;;;;-7.79;73.15;98090.94;5102957;28;20051;-68
2021/12/27 10:25:22;;;;;;;60.20;24.65;;;;;;;-7.71;72.97;98095.31;5102177;28;20046;-69
2021/12/27 10:27:49;;;;;;;69.28;25.50;;;;;;;-7.65;73.19;98084.72;5102445;28;20027;-69
2021/12/27 10:30:21;;;;;;;67.07;28.45;;;;;;;-7.52;72.97;98077.91;5100286;28;20043;-67
2021/12/27 10:33:23;;;;;;;64.55;26.45;;;;;;;-7.46;72.80;98082.47;5101028;28;20546;-67
2021/12/27 10:35:57;;;;;;;63.17;23.20;;;;;;;-7.41;73.13;98079.25;5102118;28;20659;-66
2021/12/27 10:38:31;;;;;;;64.50;25.17;;;;;;;-7.35;72.79;98091.81;5100865;28;20043;-66
2021/12/27 10:41:03;;;;;;;65.03;25.25;;;;;;;-7.30;73.18;98075.25;5101285;28;20028;-66
2021/12/27 10:43:39;;;;;;;64.05;23.63;;;;;;;-7.26;72.57;98074.69;5100640;28;20138;-65
2021/12/27 10:46:07;;;;;;;68.38;25.73;;;;;;;-7.20;72.47;98081.06;5105665;28;20031;-67
2021/12/27 10:48:45;;;;;;;87.03;31.27;;;;;;;-7.09;72.76;98083.25;5104718;28;20066;-67
2021/12/27 10:51:12;;;;;;;67.32;26.55;;;;;;;-6.95;72.90;98078.03;5106280;28;20102;-67
2021/12/27 10:53:43;;;;;;;60.15;24.38;;;;;;;-6.85;72.63;98078.50;5085970;28;20042;-67
2021/12/27 10:56:09;;;;;;;65.72;25.60;;;;;;;-6.74;73.24;98077.16;5106626;28;20023;-68
2021/12/27 10:58:38;;;;;;;62.10;24.92;;;;;;;-6.66;72.75;98069.00;5105984;28;20049;-68
2021/12/27 11:01:08;;;;;;;52.63;20.77;;;;;;;-6.56;72.32;98073.16;5106728;28;20036;-68
2021/12/27 11:03:38;;;;;;;61.10;23.75;;;;;;;-6.60;72.55;98062.88;5104369;28;20746;-67
2021/12/27 11:06:10;;;;;;;73.07;24.77;;;;;;;-6.68;71.28;98064.88;5106948;28;20043;-67
2021/12/27 11:08:45;;;;;;;75.18;30.17;;;;;;;-6.70;71.72;98065.06;5107344;27;20043;-68
2021/12/27 11:11:11;;;;;;;72.65;24.25;;;;;;;-6.71;71.48;98054.59;5107767;28;20741;-67
2021/12/27 11:13:38;;;;;;;70.05;26.45;;;;;;;-6.80;71.39;98064.59;5087495;28;20039;-65
2021/12/27 11:16:04;;;;;;;62.33;21.80;;;;;;;-6.85;71.40;98053.69;5107807;28;20047;-65
2021/12/27 11:18:29;;;;;;;52.40;20.25;;;;;;;-6.87;71.73;98048.53;5108663;27;20032;-65